createdAt,value
2023-04-18T00:02:23.665Z,11.73
2023-04-18T00:05:27.164Z,11.37
2023-04-18T00:08:31.270Z,11.70
2023-04-18T00:11:34.448Z,11.93
2023-04-18T00:14:37.767Z,11.70
2023-04-18T00:17:40.883Z,12.70
2023-04-18T00:20:43.644Z,13.10
2023-04-18T00:23:47.809Z,12.43
2023-04-18T00:26:50.536Z,15.03
2023-04-18T00:29:53.179Z,15.80
2023-04-18T00:32:55.872Z,15.43
2023-04-18T00:35:58.509Z,15.90
2023-04-18T00:39:02.746Z,15.20
2023-04-18T00:42:05.652Z,16.57
2023-04-18T00:45:09.145Z,16.03
2023-04-18T00:48:12.174Z,15.57
2023-04-18T00:51:14.972Z,17.33
2023-04-18T00:54:19.765Z,17.07
2023-04-18T00:57:23.273Z,16.23
2023-04-18T01:00:26.199Z,16.87
2023-04-18T01:03:29.035Z,17.90
2023-04-18T01:06:32.006Z,17.03
2023-04-18T01:09:36.139Z,17.43
2023-04-18T01:12:38.885Z,18.10
2023-04-18T01:15:43.565Z,17.77
2023-04-18T01:18:46.269Z,18.03
2023-04-18T01:21:48.888Z,18.03
2023-04-18T01:24:53.081Z,19.23
2023-04-18T01:27:58.757Z,19.10
2023-04-18T01:31:01.630Z,20.20
2023-04-18T01:34:04.973Z,18.93
2023-04-18T01:37:07.652Z,21.30
2023-04-18T01:40:12.813Z,19.97
2023-04-18T01:43:15.460Z,19.10
2023-04-18T01:46:18.188Z,21.37
2023-04-18T01:49:20.889Z,19.43
2023-04-18T01:52:23.533Z,19.30
2023-04-18T01:55:27.646Z,20.63
2023-04-18T01:58:30.331Z,19.13
2023-04-18T02:01:33.009Z,20.23
2023-04-18T02:04:35.752Z,19.73
2023-04-18T02:07:38.409Z,20.00
2023-04-18T02:10:42.623Z,20.03
2023-04-18T02:13:45.307Z,20.57
2023-04-18T02:16:47.964Z,22.60
2023-04-18T02:19:51.931Z,21.10
2023-04-18T02:22:54.521Z,20.77
2023-04-18T02:25:58.569Z,21.73
2023-04-18T02:29:01.246Z,20.27
2023-04-18T02:32:04.381Z,20.50
2023-04-18T02:35:07.640Z,22.03
2023-04-18T02:38:10.307Z,20.83
2023-04-18T02:41:17.361Z,21.20
2023-04-18T02:44:20.027Z,21.53
2023-04-18T02:47:22.726Z,21.53
2023-04-18T02:50:25.645Z,20.17
2023-04-18T02:53:28.300Z,20.50
2023-04-18T02:56:32.288Z,21.00
2023-04-18T02:59:34.935Z,21.47
2023-04-18T03:02:37.686Z,20.50
2023-04-18T03:05:40.558Z,20.63
2023-04-18T03:08:43.156Z,19.80
2023-04-18T03:11:47.571Z,20.63
2023-04-18T03:14:50.216Z,20.07
2023-04-18T03:17:52.864Z,21.23
2023-04-18T03:20:55.603Z,20.83
2023-04-18T03:23:58.229Z,20.10
2023-04-18T03:27:02.296Z,19.70
2023-04-18T03:30:05.790Z,20.97
2023-04-18T03:33:08.623Z,20.10
2023-04-18T03:36:11.917Z,19.90
2023-04-18T03:39:14.608Z,20.50
2023-04-18T03:42:18.613Z,21.40
2023-04-18T03:45:21.234Z,20.57
2023-04-18T03:48:23.889Z,24.07
2023-04-18T03:51:26.539Z,18.53
2023-04-18T03:54:29.261Z,19.77
2023-04-18T03:57:33.231Z,19.77
2023-04-18T04:00:35.999Z,19.67
2023-04-18T04:03:38.855Z,19.20
2023-04-18T04:06:41.904Z,19.33
2023-04-18T04:09:44.551Z,18.93
2023-04-18T04:12:48.585Z,20.17
2023-04-18T04:15:51.577Z,19.13
2023-04-18T04:18:54.245Z,19.13
2023-04-18T04:21:56.941Z,18.50
2023-04-18T04:25:00.763Z,18.93
2023-04-18T04:28:06.686Z,18.13
2023-04-18T04:31:10.355Z,18.07
2023-04-18T04:34:13.187Z,18.70
2023-04-18T04:37:18.675Z,18.40
2023-04-18T04:40:22.914Z,17.27
2023-04-18T04:43:28.711Z,17.50
2023-04-18T04:46:31.743Z,18.57
2023-04-18T04:49:34.427Z,17.53
2023-04-18T04:52:38.458Z,17.87
2023-04-18T04:55:41.325Z,16.30
2023-04-18T04:58:45.760Z,16.13
2023-04-18T05:01:48.497Z,17.90
2023-04-18T05:04:51.278Z,27.87
2023-04-18T05:07:53.962Z,18.00
2023-04-18T05:10:56.678Z,16.30
2023-04-18T05:14:00.679Z,15.60
2023-04-18T05:17:04.120Z,15.33
2023-04-18T05:20:07.959Z,14.87
2023-04-18T05:23:10.638Z,14.67
2023-04-18T05:26:13.322Z,13.93
2023-04-18T05:29:17.345Z,14.60
2023-04-18T05:32:21.129Z,13.50
2023-04-18T05:35:23.847Z,14.87
2023-04-18T05:38:26.580Z,12.50
2023-04-18T05:41:29.303Z,12.43
2023-04-18T05:44:33.358Z,12.50
2023-04-18T05:47:36.051Z,12.33
2023-04-18T05:50:38.787Z,12.43
2023-04-18T05:53:41.457Z,11.63
2023-04-18T05:56:44.257Z,11.60
2023-04-18T05:59:48.332Z,12.13
2023-04-18T06:02:51.338Z,11.60
2023-04-18T06:05:54.437Z,10.57
2023-04-18T06:08:57.215Z,9.90
2023-04-18T06:11:59.884Z,9.57
2023-04-18T06:15:05.436Z,9.63
2023-04-18T06:18:08.211Z,9.07
2023-04-18T06:21:10.920Z,10.33
2023-04-18T06:24:13.872Z,14.33
2023-04-18T06:27:28.264Z,8.57
2023-04-18T06:30:35.020Z,8.57
2023-04-18T06:33:38.570Z,8.33
2023-04-18T06:36:41.266Z,8.73
2023-04-18T06:39:43.921Z,10.60
2023-04-18T06:42:46.733Z,8.67
2023-04-18T06:45:50.869Z,8.23
2023-04-18T06:48:53.597Z,7.37
2023-04-18T06:51:56.220Z,7.67
2023-04-18T06:54:58.865Z,8.17
2023-04-18T06:58:01.590Z,6.47
2023-04-18T07:01:05.684Z,6.90
2023-04-18T07:04:08.464Z,7.30
2023-04-18T07:07:11.202Z,6.73
2023-04-18T07:10:13.929Z,7.20
2023-04-18T07:13:16.592Z,7.03
2023-04-18T07:16:20.841Z,6.87
2023-04-18T07:19:23.504Z,7.17
2023-04-18T07:22:26.229Z,6.60
2023-04-18T07:25:29.102Z,6.43
2023-04-18T07:28:32.809Z,7.27
2023-04-18T07:31:36.878Z,6.83
2023-04-18T07:34:40.211Z,7.30
2023-04-18T07:37:42.968Z,7.13
2023-04-18T07:40:46.111Z,7.30
2023-04-18T07:43:48.825Z,7.17
2023-04-18T07:46:52.999Z,7.03
2023-04-18T07:49:56.724Z,6.77
2023-04-18T07:52:59.365Z,7.07
2023-04-18T07:56:01.989Z,6.67
2023-04-18T07:59:04.716Z,6.47
2023-04-18T08:02:09.061Z,6.40
2023-04-18T08:05:11.983Z,6.10
2023-04-18T08:08:14.685Z,6.10
2023-04-18T08:11:17.311Z,5.90
2023-04-18T08:14:19.983Z,5.97
2023-04-18T08:17:24.992Z,6.33
2023-04-18T08:20:28.068Z,5.80
2023-04-18T08:23:30.728Z,6.23
2023-04-18T08:26:33.395Z,6.00
2023-04-18T08:29:36.065Z,6.00
2023-04-18T08:32:40.129Z,5.50
2023-04-18T08:35:42.981Z,5.50
2023-04-18T08:38:45.580Z,6.20
2023-04-18T08:41:54.601Z,5.10
2023-04-18T08:44:59.511Z,5.60
2023-04-18T08:48:03.917Z,5.07
2023-04-18T08:51:06.920Z,4.53
2023-04-18T08:54:09.955Z,4.90
2023-04-18T08:57:16.341Z,5.57
2023-04-18T09:00:19.690Z,5.27
2023-04-18T09:03:41.565Z,5.00
2023-04-18T09:06:53.452Z,5.30
2023-04-18T09:09:58.135Z,4.57
2023-04-18T09:13:03.000Z,5.10
2023-04-18T09:16:07.177Z,4.30
2023-04-18T09:19:13.926Z,4.53
2023-04-18T09:22:17.804Z,4.70
2023-04-18T09:25:29.218Z,3.70
2023-04-18T09:28:34.053Z,3.50
2023-04-18T09:31:37.761Z,4.40
2023-04-18T09:34:44.030Z,3.87
2023-04-18T09:37:51.409Z,3.80
2023-04-18T09:41:08.516Z,5.40
2023-04-18T09:44:14.479Z,3.40
2023-04-18T09:47:18.028Z,3.47
2023-04-18T09:50:22.304Z,3.00
2023-04-18T09:53:25.731Z,3.40
2023-04-18T09:56:32.996Z,3.17
2023-04-18T09:59:47.499Z,3.43
2023-04-18T10:02:57.614Z,3.70
2023-04-18T10:06:01.825Z,3.10
2023-04-18T10:09:05.739Z,3.10
2023-04-18T10:12:08.792Z,3.40
2023-04-18T10:15:12.470Z,2.93
2023-04-18T10:18:16.260Z,3.10
2023-04-18T10:21:20.445Z,3.30
2023-04-18T10:24:47.809Z,3.13
2023-04-18T10:27:57.379Z,3.20
2023-04-18T10:31:03.947Z,3.10
2023-04-18T10:34:08.061Z,3.00
2023-04-18T10:37:13.815Z,3.00
2023-04-18T10:40:16.601Z,3.30
2023-04-18T10:43:19.279Z,3.00
2023-04-18T10:46:31.751Z,3.17
2023-04-18T10:49:37.322Z,3.40
2023-04-18T10:52:41.659Z,3.70
2023-04-18T10:55:54.319Z,3.67
2023-04-18T10:59:02.234Z,4.20
2023-04-18T11:02:13.495Z,4.00
2023-04-18T11:05:21.835Z,3.63
2023-04-18T11:08:25.836Z,4.47
2023-04-18T11:11:28.539Z,3.77
2023-04-18T11:14:40.722Z,3.87
2023-04-18T11:17:43.395Z,5.00
2023-04-18T11:20:48.981Z,4.30
2023-04-18T11:23:53.081Z,4.37
2023-04-18T11:26:56.201Z,5.37
2023-04-18T11:29:59.065Z,5.50
2023-04-18T11:33:06.288Z,5.53
2023-04-18T11:36:09.626Z,5.37
2023-04-18T11:39:14.242Z,5.40
2023-04-18T11:42:16.936Z,5.53
2023-04-18T11:45:19.608Z,5.13
2023-04-18T11:48:22.481Z,4.90
2023-04-18T11:51:35.739Z,5.40
2023-04-18T11:54:44.781Z,5.33
2023-04-18T11:57:52.778Z,5.47
2023-04-18T12:00:55.456Z,5.50
2023-04-18T12:04:02.731Z,5.10
2023-04-18T12:07:05.689Z,4.73
2023-04-18T12:10:25.055Z,4.57
2023-04-18T12:13:32.842Z,5.00
2023-04-18T12:16:36.125Z,4.77
2023-04-18T12:19:38.924Z,4.37
2023-04-18T12:22:44.119Z,5.30
2023-04-18T12:25:59.778Z,5.47
2023-04-18T12:29:02.400Z,5.30
2023-04-18T12:32:05.368Z,5.40
2023-04-18T12:35:09.047Z,5.10
2023-04-18T12:38:11.650Z,5.27
2023-04-18T12:41:15.640Z,5.17
2023-04-18T12:44:18.321Z,5.43
2023-04-18T12:47:21.093Z,4.80
2023-04-18T12:50:25.926Z,5.37
2023-04-18T12:53:28.734Z,4.97
2023-04-18T12:56:32.738Z,4.87
2023-04-18T12:59:35.434Z,5.07
2023-04-18T13:02:39.194Z,5.57
2023-04-18T13:05:42.137Z,5.20
2023-04-18T13:08:46.317Z,5.20
2023-04-18T13:11:50.399Z,5.37
2023-04-18T13:14:53.050Z,4.40
2023-04-18T13:17:57.105Z,5.20
2023-04-18T13:20:59.791Z,5.63
2023-04-18T13:24:02.459Z,5.77
2023-04-18T13:27:10.360Z,5.50
2023-04-18T13:30:13.354Z,5.57
2023-04-18T13:33:17.460Z,5.67
2023-04-18T13:36:20.105Z,5.87
2023-04-18T13:39:24.300Z,5.33
2023-04-18T13:42:28.344Z,5.80
2023-04-18T13:45:31.012Z,5.87
2023-04-18T13:48:33.680Z,5.50
2023-04-18T13:51:37.468Z,6.10
2023-04-18T13:54:41.223Z,5.20
2023-04-18T13:57:45.793Z,5.70
2023-04-18T14:00:48.440Z,6.43
2023-04-18T14:03:51.218Z,6.17
2023-04-18T14:06:53.977Z,5.50
2023-04-18T14:09:56.600Z,5.93
2023-04-18T14:13:00.602Z,5.87
2023-04-18T14:16:04.450Z,6.60
2023-04-18T14:19:07.498Z,6.40
2023-04-18T14:22:10.141Z,6.07
2023-04-18T14:25:12.929Z,6.07
2023-04-18T14:28:20.830Z,5.83
2023-04-18T14:31:23.640Z,6.47
2023-04-18T14:34:26.296Z,6.40
2023-04-18T14:37:28.938Z,5.93
2023-04-18T14:40:32.889Z,5.60
2023-04-18T14:43:37.122Z,5.40
2023-04-18T14:46:39.889Z,5.60
2023-04-18T14:49:46.510Z,6.13
2023-04-18T14:52:49.229Z,6.03
2023-04-18T14:55:52.193Z,6.23
2023-04-18T14:58:56.204Z,6.10
2023-04-18T15:01:58.901Z,6.13
2023-04-18T15:05:01.748Z,5.60
2023-04-18T15:08:06.786Z,5.50
2023-04-18T15:11:09.523Z,5.30
2023-04-18T15:14:13.829Z,6.60
2023-04-18T15:17:16.812Z,11.10
2023-04-18T15:20:20.790Z,6.50
2023-04-18T15:23:25.105Z,7.17
2023-04-18T15:26:27.718Z,5.50
2023-04-18T15:29:31.954Z,5.53
2023-04-18T15:32:34.633Z,6.07
2023-04-18T15:35:37.330Z,5.70
2023-04-18T15:38:40.201Z,5.80
2023-04-18T15:41:43.001Z,5.07
2023-04-18T15:44:46.981Z,6.13
2023-04-18T15:47:49.737Z,10.97
2023-04-18T15:50:52.738Z,10.93
2023-04-18T15:53:55.734Z,90.57
2023-04-18T15:56:59.096Z,22.30
2023-04-18T16:00:04.096Z,39.03
2023-04-18T16:03:09.891Z,6.90
2023-04-18T16:06:12.794Z,26.77
2023-04-18T16:09:16.264Z,8.23
2023-04-18T16:12:18.909Z,9.17
2023-04-18T16:15:22.951Z,5.77
2023-04-18T16:18:25.691Z,6.67
2023-04-18T16:21:29.267Z,10.70
2023-04-18T16:24:32.084Z,11.10
2023-04-18T16:27:34.943Z,8.40
2023-04-18T16:30:39.055Z,5.10
2023-04-18T16:33:41.835Z,6.93
2023-04-18T16:36:44.701Z,5.07
2023-04-18T16:39:47.372Z,4.60
2023-04-18T16:42:50.085Z,4.90
2023-04-18T16:45:56.222Z,4.30
2023-04-18T16:48:59.246Z,4.60
2023-04-18T16:52:02.526Z,4.80
2023-04-18T16:55:06.656Z,4.70
2023-04-18T16:58:09.620Z,4.60
2023-04-18T17:01:13.626Z,4.70
2023-04-18T17:04:16.625Z,4.47
2023-04-18T17:07:19.615Z,4.67
2023-04-18T17:10:22.727Z,5.00
2023-04-18T17:13:26.946Z,4.70
2023-04-18T17:16:31.193Z,4.30
2023-04-18T17:19:34.088Z,5.00
2023-04-18T17:22:36.778Z,4.77
2023-04-18T17:25:39.451Z,4.70
2023-04-18T17:28:42.240Z,4.37
2023-04-18T17:31:46.255Z,4.63
2023-04-18T17:34:48.914Z,4.90
2023-04-18T17:37:52.793Z,4.60
2023-04-18T17:40:59.902Z,4.73
2023-04-18T17:44:02.562Z,4.40
2023-04-18T17:47:06.590Z,4.40
2023-04-18T17:50:09.876Z,4.77
2023-04-18T17:53:12.770Z,4.73
2023-04-18T17:56:15.540Z,4.47
2023-04-18T17:59:18.166Z,4.20
2023-04-18T18:02:23.285Z,4.37
2023-04-18T18:05:26.119Z,4.23
2023-04-18T18:08:29.546Z,4.60
2023-04-18T18:11:32.262Z,17.43
2023-04-18T18:14:34.926Z,7.60
2023-04-18T18:17:38.995Z,5.00
2023-04-18T18:20:42.918Z,4.87
2023-04-18T18:23:45.827Z,4.60
2023-04-18T18:26:51.421Z,4.90
2023-04-18T18:29:54.392Z,5.37
2023-04-18T18:32:58.695Z,5.33
2023-04-18T18:36:01.568Z,4.60
2023-04-18T18:39:04.506Z,4.37
2023-04-18T18:42:07.287Z,4.60
2023-04-18T18:45:10.864Z,4.50
2023-04-18T18:48:15.344Z,5.00
2023-04-18T18:51:19.177Z,5.30
2023-04-18T18:54:21.797Z,4.77
2023-04-18T18:57:24.459Z,4.53
2023-04-18T19:00:27.652Z,4.67
2023-04-18T19:03:31.771Z,4.83
2023-04-18T19:06:34.576Z,5.23
2023-04-18T19:09:37.661Z,4.70
2023-04-18T19:12:40.337Z,4.80
2023-04-18T19:15:42.994Z,4.60
2023-04-18T19:18:47.001Z,4.87
2023-04-18T19:21:50.064Z,4.13
2023-04-18T19:24:52.835Z,4.70
2023-04-18T19:27:55.451Z,4.40
2023-04-18T19:30:58.258Z,4.90
2023-04-18T19:34:02.677Z,5.43
2023-04-18T19:37:05.715Z,4.97
2023-04-18T19:40:09.438Z,4.60
2023-04-18T19:43:12.083Z,5.00
2023-04-18T19:46:14.760Z,4.80
2023-04-18T19:49:18.770Z,4.80
2023-04-18T19:52:21.403Z,5.27
2023-04-18T19:55:24.350Z,4.80
2023-04-18T19:58:37.830Z,4.73
2023-04-18T20:01:40.560Z,4.90
2023-04-18T20:04:44.912Z,5.80
2023-04-18T20:07:47.985Z,4.83
2023-04-18T20:10:50.711Z,4.67
2023-04-18T20:13:54.960Z,4.80
2023-04-18T20:16:57.813Z,5.10
2023-04-18T20:20:01.867Z,5.63
2023-04-18T20:23:04.527Z,5.40
2023-04-18T20:26:07.642Z,5.20
2023-04-18T20:29:10.305Z,5.20
2023-04-18T20:32:13.081Z,4.90
2023-04-18T20:35:17.382Z,5.77
2023-04-18T20:38:20.099Z,5.00
2023-04-18T20:41:24.114Z,5.33
2023-04-18T20:44:28.140Z,5.90
2023-04-18T20:47:30.787Z,5.43
2023-04-18T20:50:34.843Z,5.40
2023-04-18T20:53:37.514Z,5.20
2023-04-18T20:56:40.246Z,5.37
2023-04-18T20:59:42.891Z,5.70
2023-04-18T21:02:45.826Z,5.30
2023-04-18T21:05:49.928Z,5.90
2023-04-18T21:08:52.567Z,5.50
2023-04-18T21:11:55.162Z,5.37
2023-04-18T21:14:57.948Z,5.30
2023-04-18T21:18:00.634Z,5.30
2023-04-18T21:21:05.719Z,5.67
2023-04-18T21:24:08.573Z,7.63
2023-04-18T21:27:11.432Z,7.63
2023-04-18T21:30:14.598Z,6.23
2023-04-18T21:33:17.636Z,5.83
2023-04-18T21:36:21.684Z,6.00
2023-04-18T21:39:24.413Z,5.80
2023-04-18T21:42:27.011Z,6.63
2023-04-18T21:45:29.655Z,5.90
2023-04-18T21:48:32.310Z,6.00
2023-04-18T21:51:36.341Z,6.13
2023-04-18T21:54:39.768Z,6.17
2023-04-18T21:57:42.419Z,5.93
2023-04-18T22:00:45.083Z,6.27
2023-04-18T22:03:47.904Z,5.90
2023-04-18T22:06:53.989Z,5.73
2023-04-18T22:09:57.951Z,6.37
2023-04-18T22:13:00.990Z,5.70
2023-04-18T22:16:04.237Z,6.40
2023-04-18T22:19:08.972Z,6.83
2023-04-18T22:22:13.041Z,6.67
2023-04-18T22:25:15.707Z,6.57
2023-04-18T22:28:18.352Z,5.87
2023-04-18T22:31:21.216Z,5.97
2023-04-18T22:34:23.916Z,6.23
2023-04-18T22:37:27.929Z,6.07
2023-04-18T22:40:30.608Z,6.63
2023-04-18T22:43:33.844Z,6.77
2023-04-18T22:46:38.418Z,6.40
2023-04-18T22:49:41.993Z,6.17
2023-04-18T22:52:46.048Z,6.27
2023-04-18T22:55:48.711Z,6.10
2023-04-18T22:58:51.514Z,6.53
2023-04-18T23:01:54.284Z,6.40
2023-04-18T23:04:58.321Z,6.10
2023-04-18T23:08:02.621Z,6.57
2023-04-18T23:11:05.316Z,6.03
2023-04-18T23:14:11.459Z,5.73
2023-04-18T23:17:14.110Z,6.00
2023-04-18T23:20:16.797Z,5.70
2023-04-18T23:23:20.792Z,5.77
2023-04-18T23:26:23.839Z,6.63
2023-04-18T23:29:26.547Z,5.87
2023-04-18T23:32:29.228Z,5.77
2023-04-18T23:35:31.839Z,5.73
2023-04-18T23:38:37.158Z,6.27
2023-04-18T23:41:39.853Z,6.30
2023-04-18T23:44:42.495Z,5.97
2023-04-18T23:47:45.183Z,6.27
2023-04-18T23:50:49.282Z,5.80
2023-04-18T23:53:53.256Z,6.00
2023-04-18T23:56:57.031Z,5.90
2023-04-18T23:59:59.669Z,6.00
